• Join FlightAware (Why Join?)
  • Login
  • US Flag 
01:05AM EDT


 

Airport Tracker/Info


-or-


 

Live Flight TrackerFlight Track Log ✈ N9003S ✈ 21-Jul-2013 ✈ KMQI - KHPN

Flight Track Log - Related Links

Times and Time Zones

All times are in EDT time to prevent confusion due to time zone crossing. See the N9003S flight status page for this flight to view local times or setup timezone preferences in your user account.

Time Position Orientation Groundspeed Altitude Reporting Facility
EDT Latitude Longitude Course Direction KTS MPH feet Rate Location/Type
07:43AM 36.0933 -75.7386 335° Northwest 137 158 5,300  Level Washington Center
07:44AM 36.1372 -75.7411 357° North 142 163 6,100 660 Climbing Washington Center
07:45AM 36.1747 -75.7489 350° North 137 158 6,800 420 Climbing Washington Center
07:46AM 36.2081 -75.7697 333° Northwest 137 158 7,000 60 Climbing Washington Center
07:47AM 36.2456 -75.8031 324° Northwest 143 165 7,000 -60 Level Washington Center
07:48AM 36.1867 -75.7924 335° Northwest  Level FlightAware Approximate
07:48AM 36.2767 -75.8367 319° Northwest 167 192 6,900  Level Washington Center
07:48AM 36.3100 -75.8678 323° Northwest 168 193 6,900  Level Washington Center
07:49AM 36.3558 -75.8808 347° North 178 205 6,900  Level Washington Center
07:50AM 36.3956 -75.8450 36° Northeast 176 203 6,900  Level Washington Center
07:52AM 36.4478 -75.8475 358° North 169 194 6,900  Level Washington Center
07:53AM 36.4894 -75.8556 351° North 173 199 6,900  Level Washington Center
07:53AM 36.5269 -75.8633 351° North 174 200 6,900  Level Washington Center
07:54AM 36.5750 -75.8686 355° North 173 199 6,900  Level Washington Center
07:55AM 36.6231 -75.8767 352° North 171 197 6,900  Level Washington Center
07:56AM 36.6711 -75.8794 357° North 173 199 6,900  Level Washington Center
07:57AM 36.7272 -75.8872 354° North 172 198 6,900  Level Washington Center
07:58AM 36.7647 -75.8900 357° North 169 194 6,900  Level Washington Center
07:59AM 36.8108 -75.8956 354° North 171 197 6,900  Level Washington Center
08:00AM 36.8650 -75.9008 356° North 171 197 6,900  Level Washington Center
08:01AM 36.9108 -75.9011 360° North 171 197 6,900  Level Washington Center
08:02AM 36.9547 -75.9089 352° North 171 197 6,900  Level Washington Center
08:03AM 37.0025 -75.9117 357° North 172 198 6,900  Level Washington Center
08:04AM 37.0486 -75.9172 355° North 170 196 6,900  Level Washington Center
08:05AM 37.1028 -75.9225 356° North 169 194 6,900  Level Washington Center
08:07AM 37.1547 -75.9281 355° North 169 194 6,900  Level Washington Center
08:08AM 37.2008 -75.9308 357° North 171 197 6,900  Level Washington Center
08:08AM 37.2444 -75.9336 357° North 172 198 6,900  Level Washington Center
08:10AM 37.2967 -75.9417 353° North 171 197 6,900  Level Washington Center
08:11AM 37.3447 -75.9419 360° North 171 197 6,900  Level Washington Center
08:12AM 37.3967 -75.9500 353° North 173 199 6,900  Level Washington Center
08:13AM 37.4489 -75.9528 358° North 172 198 6,900 -120 Level Washington Center
08:13AM 37.4719 -75.9556 355° North 176 203 6,800 -120 Descending Washington Center
08:14AM 37.5178 -75.9611 355° North 170 196 6,800 60 Level Washington Center
08:15AM 37.5656 -75.9639 357° North 168 193 7,000 60 Climbing Washington Center
08:16AM 37.6136 -75.9667 357° North 169 194 7,000  Level Washington Center
08:17AM 37.6597 -75.9328 30° Northeast 195 224 7,000  Level Washington Center
08:18AM 37.7036 -75.9094 23° Northeast 173 199 7,000  Level Washington Center
08:19AM 37.7475 -75.8806 27° Northeast 173 199 7,000  Level Washington Center
08:20AM 37.7911 -75.8544 25° Northeast 174 200 7,000  Level Washington Center
08:21AM 37.8350 -75.8258 27° Northeast 176 203 7,000  Level Washington Center
08:22AM 37.8769 -75.7997 26° Northeast 175 201 7,000  Level Washington Center
08:23AM 37.9206 -75.7708 28° Northeast 177 204 7,000  Level Washington Center
08:24AM 37.9667 -75.7444 24° Northeast 173 199 7,000  Level Washington Center
08:25AM 38.0103 -75.7208 23° Northeast 171 197 7,000  Level Washington Center
08:26AM 38.0564 -75.6894 28° Northeast 172 198 7,000  Level Washington Center
08:27AM 38.1022 -75.6631 24° Northeast 172 198 7,000  Level Washington Center
08:28AM 38.1439 -75.6367 26° Northeast 171 197 7,000  Level Washington Center
08:29AM 38.1897 -75.6103 24° Northeast 170 196 7,000  Level Washington Center
08:30AM 38.2336 -75.5839 25° Northeast 171 197 7,000  Level Washington Center
08:32AM 38.2775 -75.5547 28° Northeast 172 198 7,000  Level Washington Center
08:33AM 38.3211 -75.5281 26° Northeast 171 197 7,000  Level Washington Center
08:34AM 38.3568 -75.4849 27° Northeast  Level FlightAware Approximate
08:41AM 38.6530 -75.2946 27° Northeast  Level FlightAware Approximate
08:42AM 38.6954 -75.2674 27° Northeast  Level FlightAware Approximate
08:43AM 38.7377 -75.2402 27° Northeast  Level FlightAware Approximate
08:44AM 38.7800 -75.2129 27° Northeast  Level FlightAware Approximate
08:45AM 38.8231 -75.1876 23° Northeast  Level FlightAware Approximate
08:46AM 38.8630 -75.1567 31° Northeast  Level FlightAware Approximate
08:47AM 38.9029 -75.1257 31° Northeast  Level FlightAware Approximate
08:48AM 38.9427 -75.0946 31° Northeast  Level FlightAware Approximate
08:49AM 38.9826 -75.0636 31° Northeast  Level FlightAware Approximate
08:49AM 39.0164 -75.0919 32° Northeast 174 200 7,000  Level Washington Center
08:50AM 39.0223 -75.0319 32° Northeast  Level FlightAware Approximate
08:50AM 39.0580 -75.0648 27° Northeast  Level Estimated
08:51AM 39.0617 -74.9999 32° Northeast  Level FlightAware Approximate
08:52AM 39.1011 -74.9678 32° Northeast  Level FlightAware Approximate
08:53AM 39.1405 -74.9357 32° Northeast  Level FlightAware Approximate
08:53AM 39.1953 -74.9944 27° Northeast 177 204 7,000  Level Washington Center
08:54AM 39.1799 -74.9036 32° Northeast  Level FlightAware Approximate
08:54AM 39.2367 -74.9668 27° Northeast  Level Estimated
08:57AM 39.3488 -74.8738 27° Northeast  Level Estimated
08:57AM 39.3592 -74.8642 27° Northeast 179 206 7,000  Level Washington Center
08:58AM 39.3903 -74.8464 27° Northeast  Level Estimated
08:59AM 39.4409 -74.8103 27° Northeast  Level Estimated
09:01AM 39.5264 -74.7726 27° Northeast  Level Estimated
09:02AM 39.5678 -74.7447 27° Northeast  Level Estimated
09:06AM 39.7314 -74.6176 27° Northeast  Level Estimated
09:07AM 39.7729 -74.5899 27° Northeast  Level Estimated
09:08AM 39.8144 -74.5622 27° Northeast  Level Estimated
09:09AM 39.8559 -74.5345 27° Northeast  Level Estimated
09:10AM 39.8974 -74.5068 27° Northeast  Level Estimated
09:11AM 39.9388 -74.4790 27° Northeast  Level Estimated
09:12AM 39.9803 -74.4511 27° Northeast  Level Estimated
09:13AM 40.0219 -74.4231 27° Northeast  Level Estimated
09:14AM 40.0634 -74.3951 27° Northeast  Level Estimated
09:15AM 40.1050 -74.3671 27° Northeast  Level Estimated
09:16AM 40.1466 -74.3390 27° Northeast  Level Estimated
09:17AM 40.1882 -74.3109 27° Northeast  Level Estimated
09:18AM 40.2298 -74.2828 27° Northeast  Level Estimated
09:19AM 40.2713 -74.2546 27° Northeast  Level Estimated
09:20AM 40.3129 -74.2264 27° Northeast  Level Estimated
09:20AM 40.3500 -74.1500 27° Northeast 177 204 2,500  Level New York TRACON
09:21AM 40.3544 -74.1982 27° Northeast  Level Estimated
09:21AM 40.3833 -74.1333 21° North 175 201 2,500  Level New York TRACON
09:22AM 40.3960 -74.1699 27° Northeast  Level Estimated
09:22AM 40.4333 -74.1167 14° North 174 200 2,500  Level New York TRACON
09:23AM 40.4375 -74.1416 27° Northeast  Level Estimated
09:23AM 40.4833 -74.0833 27° Northeast 174 200 2,500  Level New York TRACON
09:24AM 40.4790 -74.1132 27° Northeast  Level Estimated
09:24AM 40.5333 -74.0667 14° North 172 198 2,500  Level New York TRACON
09:25AM 40.5205 -74.0849 27° Northeast  Level Estimated
09:25AM 40.5667 -74.0500 21° North 173 199 2,400  Level New York TRACON
09:26AM 40.5620 -74.0564 27° Northeast  Level Estimated